Dades de l'estació automàtica Sant Salvador de Guardiola
Resum diari
16:00 TU| Temperatura mitjana | 24.5 °C | |
|---|---|---|
| Temperatura màxima | 34.0 °C | 12:37 TU |
| Temperatura mínima | 15.8 °C | 5:00 TU |
| Humitat relativa mitjana | 68% | |
| Precipitació acumulada | 0.0 mm | |
| Ratxa màxima del vent (10 m) | 31.0 km/h - 132º | 13:11 TU |
| Pressió atmosfèrica mitjana | 1019.8 hPa | |
| Irradiació solar global | 22.7 MJ/m2 | |
El tram horari està expressat en Temps Universal (TU). Cal sumar una hora en horari d'hivern i dues en horari d'estiu per passar a l'hora oficial.
Sant Salvador de Guardiola
| Municipi | Sant Salvador de Guardiola |
|---|---|
| Comarca | Bages |
| Altitud | 347 m |
| Data alta | 02.02.1996 |
| Estat actual | Operativa |
| Període TU |
TM °C |
TX °C |
TN °C |
HRM % |
PPT mm |
VVM (10 m) km/h |
DVM (10 m) graus |
VVX (10 m) km/h |
PM hPa |
RS W/m2 |
|---|---|---|---|---|---|---|---|---|---|---|
| 00:00 - 00:30 | 18.1 | 18.4 | 17.9 | 100 | 0.0 | 0.7 | 193 | 2.5 | 1020.6 | 0 |
| 00:30 - 01:00 | 17.9 | 18.1 | 17.8 | 100 | 0.0 | 0.7 | 192 | 2.5 | 1020.7 | 0 |
| 01:00 - 01:30 | 17.9 | 18.0 | 17.8 | 100 | 0.0 | 0.4 | 20 | 3.2 | 1020.8 | 0 |
| 01:30 - 02:00 | 17.6 | 17.8 | 17.5 | 100 | 0.0 | 1.1 | 326 | 4.0 | 1020.7 | 0 |
| 02:00 - 02:30 | 17.8 | 18.0 | 17.3 | 100 | 0.0 | 3.2 | 174 | 5.4 | 1020.6 | 0 |
| 02:30 - 03:00 | 17.2 | 17.5 | 17.0 | 100 | 0.0 | 1.1 | 185 | 4.7 | 1020.7 | 0 |
| 03:00 - 03:30 | 17.0 | 17.3 | 16.8 | 100 | 0.0 | 1.4 | 174 | 4.3 | 1020.7 | 0 |
| 03:30 - 04:00 | 16.8 | 17.0 | 16.3 | 100 | 0.0 | 1.4 | 243 | 3.6 | 1020.7 | 0 |
| 04:00 - 04:30 | 16.5 | 16.9 | 16.1 | 100 | 0.0 | 1.8 | 184 | 5.4 | 1020.7 | 0 |
| 04:30 - 05:00 | 16.1 | 16.6 | 15.8 | 100 | 0.0 | 0.0 | 195 | 2.5 | 1020.8 | 0 |
| 05:00 - 05:30 | 16.2 | 16.6 | 15.8 | 100 | 0.0 | 1.8 | 188 | 5.0 | 1020.8 | 2 |
| 05:30 - 06:00 | 16.0 | 16.5 | 15.9 | 100 | 0.0 | 0.7 | 182 | 2.9 | 1021.0 | 20 |
| 06:00 - 06:30 | 17.1 | 18.1 | 16.5 | 100 | 0.0 | 1.1 | 62 | 3.2 | 1021.0 | 99 |
| 06:30 - 07:00 | 19.2 | 20.1 | 18.2 | 90 | 0.0 | 1.4 | 42 | 4.3 | 1021.1 | 198 |
| 07:00 - 07:30 | 21.0 | 21.8 | 20.3 | 81 | 0.0 | 1.4 | 5 | 4.7 | 1021.1 | 291 |
| 07:30 - 08:00 | 22.7 | 23.8 | 21.9 | 75 | 0.0 | 2.2 | 30 | 5.0 | 1020.7 | 393 |
| 08:00 - 08:30 | 24.3 | 24.7 | 23.9 | 67 | 0.0 | 3.2 | 43 | 8.6 | 1020.6 | 488 |
| 08:30 - 09:00 | 25.3 | 26.0 | 24.3 | 63 | 0.0 | 2.5 | 44 | 7.9 | 1020.7 | 576 |
| 09:00 - 09:30 | 26.8 | 27.6 | 25.8 | 58 | 0.0 | 2.5 | 27 | 7.6 | 1020.5 | 654 |
| 09:30 - 10:00 | 28.4 | 29.4 | 27.7 | 51 | 0.0 | 4.3 | 0 | 11.5 | 1020.3 | 726 |
| 10:00 - 10:30 | 29.9 | 31.1 | 28.6 | 46 | 0.0 | 2.5 | 285 | 7.2 | 1020.0 | 777 |
| 10:30 - 11:00 | 31.2 | 32.4 | 30.2 | 43 | 0.0 | 4.3 | 311 | 11.9 | 1019.6 | 818 |
| 11:00 - 11:30 | 32.1 | 32.6 | 31.8 | 38 | 0.0 | 5.0 | 118 | 14.8 | 1019.2 | 845 |
| 11:30 - 12:00 | 33.0 | 33.7 | 32.6 | 35 | 0.0 | 9.0 | 136 | 22.3 | 1018.8 | 856 |
| 12:00 - 12:30 | 33.4 | 33.9 | 32.7 | 32 | 0.0 | 9.7 | 148 | 22.7 | 1018.7 | 848 |
| 12:30 - 13:00 | 33.5 | 34.0 | 33.2 | 30 | 0.0 | 12.6 | 146 | 26.6 | 1018.6 | 829 |
| 13:00 - 13:30 | 33.3 | 34.0 | 33.1 | 29 | 0.0 | 13.3 | 141 | 31.0 | 1018.4 | 802 |
| 13:30 - 14:00 | 33.5 | 34.0 | 33.1 | 29 | 0.0 | 9.0 | 154 | 24.1 | 1018.3 | 752 |
| 14:00 - 14:30 | 32.8 | 33.8 | 32.2 | 31 | 0.0 | 11.5 | 150 | 24.8 | 1018.2 | 695 |
| 14:30 - 15:00 | 32.4 | 32.8 | 31.9 | 33 | 0.0 | 13.3 | 141 | 27.0 | 1018.1 | 619 |
| 15:00 - 15:30 | 32.0 | 32.3 | 31.8 | 34 | 0.0 | 12.2 | 142 | 23.8 | 1017.9 | 541 |
| 15:30 - 16:00 | 31.6 | 31.8 | 31.2 | 37 | 0.0 | 10.8 | 143 | 18.7 | 1017.9 | 450 |
| 16:00 - 16:30 | 30.8 | 31.3 | 30.2 | 39 | 0.0 | 10.1 | 141 | 18.4 | 1017.9 | 357 |
| 16:30 - 17:00 | (s/d) | (s/d) | (s/d) | (s/d) | (s/d) | (s/d) | (s/d) | (s/d) | (s/d) | (s/d) |
Les dades en taronja només han passat un control de qualitat automàtic. Resta pendent la seva validació definitiva.